createdAt,value
2023-06-27T00:01:53.520Z,21.15
2023-06-27T00:05:17.114Z,21.09
2023-06-27T00:08:16.675Z,21.02
2023-06-27T00:11:24.052Z,20.95
2023-06-27T00:14:35.052Z,20.90
2023-06-27T00:17:44.720Z,20.84
2023-06-27T00:20:56.216Z,20.81
2023-06-27T00:24:04.312Z,20.77
2023-06-27T00:27:20.380Z,20.68
2023-06-27T00:30:31.951Z,20.64
2023-06-27T00:33:28.203Z,20.60
2023-06-27T00:36:46.924Z,20.54
2023-06-27T00:39:39.812Z,20.51
2023-06-27T00:42:44.585Z,20.49
2023-06-27T00:46:13.148Z,20.45
2023-06-27T00:49:22.874Z,20.41
2023-06-27T00:52:46.697Z,20.38
2023-06-27T00:56:02.497Z,20.34
2023-06-27T00:59:30.012Z,20.26
2023-06-27T01:02:54.210Z,20.16
2023-06-27T01:06:00.301Z,20.08
2023-06-27T01:09:10.136Z,19.98
2023-06-27T01:12:22.151Z,19.88
2023-06-27T01:15:42.752Z,19.77
2023-06-27T01:18:32.471Z,19.68
2023-06-27T01:21:09.598Z,19.58
2023-06-27T01:24:37.649Z,19.48
2023-06-27T01:27:46.406Z,19.38
2023-06-27T01:31:14.099Z,19.30
2023-06-27T01:33:59.455Z,19.25
2023-06-27T01:37:15.513Z,19.15
2023-06-27T01:40:04.394Z,19.07
2023-06-27T01:43:31.967Z,18.98
2023-06-27T01:46:20.579Z,18.92
2023-06-27T01:49:14.222Z,18.87
2023-06-27T01:52:22.332Z,18.81
2023-06-27T01:55:49.810Z,18.78
2023-06-27T01:59:13.646Z,18.78
2023-06-27T02:02:37.511Z,18.79
2023-06-27T02:06:01.053Z,18.79
2023-06-27T02:09:28.895Z,18.81
2023-06-27T02:12:56.467Z,18.82
2023-06-27T02:16:04.897Z,18.80
2023-06-27T02:19:32.550Z,18.75
2023-06-27T02:22:37.774Z,18.74
2023-06-27T02:26:06.512Z,18.71
2023-06-27T02:29:37.411Z,18.69
2023-06-27T02:32:45.142Z,18.67
2023-06-27T02:36:14.175Z,18.68
2023-06-27T02:39:11.893Z,18.66
2023-06-27T02:42:20.667Z,18.64
2023-06-27T02:45:48.211Z,18.63
2023-06-27T02:48:56.890Z,18.57
2023-06-27T02:52:24.470Z,18.53
2023-06-27T02:55:34.264Z,18.52
2023-06-27T02:58:43.041Z,18.48
2023-06-27T03:01:52.061Z,18.45
2023-06-27T03:05:19.656Z,18.40
2023-06-27T03:08:47.300Z,18.38
2023-06-27T03:12:14.840Z,18.38
2023-06-27T03:15:21.254Z,18.37
2023-06-27T03:18:29.796Z,18.34
2023-06-27T03:21:39.448Z,18.34
2023-06-27T03:24:49.358Z,18.35
2023-06-27T03:27:40.334Z,18.38
2023-06-27T03:31:08.819Z,18.39
2023-06-27T03:34:36.574Z,18.43
2023-06-27T03:38:04.633Z,18.43
2023-06-27T03:40:33.771Z,18.43
2023-06-27T03:43:57.397Z,18.44
2023-06-27T03:46:47.210Z,18.49
2023-06-27T03:49:58.301Z,18.52
2023-06-27T03:53:07.738Z,18.50
2023-06-27T03:56:31.487Z,18.50
2023-06-27T03:59:59.435Z,18.52
2023-06-27T04:03:07.150Z,18.54
2023-06-27T04:06:23.289Z,18.53
2023-06-27T04:09:30.856Z,18.55
2023-06-27T04:12:20.886Z,18.58
2023-06-27T04:15:11.633Z,18.62
2023-06-27T04:18:39.645Z,18.66
2023-06-27T04:21:49.558Z,18.70
2023-06-27T04:24:58.615Z,18.74
2023-06-27T04:27:47.817Z,18.79
2023-06-27T04:31:15.427Z,18.82
2023-06-27T04:34:20.325Z,18.86
2023-06-27T04:37:43.908Z,18.93
2023-06-27T04:41:11.464Z,19.03
2023-06-27T04:44:24.148Z,19.13
2023-06-27T04:47:28.069Z,19.22
2023-06-27T04:50:55.560Z,19.32
2023-06-27T04:54:23.372Z,19.41
2023-06-27T04:57:32.256Z,19.57
2023-06-27T05:00:26.504Z,19.69
2023-06-27T05:03:54.275Z,19.79
2023-06-27T05:07:10.372Z,19.92
2023-06-27T05:10:19.073Z,20.04
2023-06-27T05:13:27.451Z,20.16
2023-06-27T05:16:23.808Z,20.28
2023-06-27T05:19:35.435Z,20.41
2023-06-27T05:23:03.124Z,20.51
2023-06-27T05:26:12.711Z,20.61
2023-06-27T05:29:02.870Z,20.71
2023-06-27T05:32:12.622Z,20.82
2023-06-27T05:35:40.734Z,20.94
2023-06-27T05:39:08.096Z,21.06
2023-06-27T05:42:35.813Z,21.21
2023-06-27T05:45:44.412Z,21.34
2023-06-27T05:49:12.000Z,21.46
2023-06-27T05:52:09.191Z,21.56
2023-06-27T05:55:16.972Z,21.73
2023-06-27T05:58:44.730Z,21.89
2023-06-27T06:01:15.000Z,21.98
2023-06-27T06:04:42.554Z,22.12
2023-06-27T06:08:10.137Z,22.27
2023-06-27T06:11:37.904Z,22.42
2023-06-27T06:14:53.399Z,22.55
2023-06-27T06:18:01.924Z,22.68
2023-06-27T06:20:53.416Z,22.77
2023-06-27T06:24:23.912Z,22.91
2023-06-27T06:28:01.726Z,23.06
2023-06-27T06:31:29.431Z,23.20
2023-06-27T06:34:39.199Z,23.36
2023-06-27T06:37:46.982Z,23.51
2023-06-27T06:40:54.960Z,23.65
2023-06-27T06:44:04.763Z,23.79
2023-06-27T06:47:32.336Z,23.85
2023-06-27T06:50:21.123Z,23.90
2023-06-27T06:53:30.250Z,24.05
2023-06-27T06:56:57.834Z,24.13
2023-06-27T06:59:49.483Z,24.24
2023-06-27T07:03:17.403Z,24.42
2023-06-27T07:06:45.237Z,24.59
2023-06-27T07:09:34.826Z,24.67
2023-06-27T07:12:24.096Z,24.77
2023-06-27T07:14:51.798Z,24.87
2023-06-27T07:17:28.856Z,24.96
2023-06-27T07:20:36.641Z,25.11
2023-06-27T07:23:26.094Z,25.23
2023-06-27T07:26:53.649Z,25.39
2023-06-27T07:29:41.389Z,25.51
2023-06-27T07:32:30.416Z,25.65
2023-06-27T07:35:45.652Z,25.82
2023-06-27T07:39:13.712Z,26.01
2023-06-27T07:42:41.447Z,26.15
2023-06-27T07:46:09.048Z,26.31
2023-06-27T07:48:37.086Z,26.40
2023-06-27T07:51:06.851Z,26.49
2023-06-27T07:54:34.603Z,26.65
2023-06-27T07:57:03.197Z,26.77
2023-06-27T08:00:30.777Z,26.87
2023-06-27T08:03:58.321Z,26.99
2023-06-27T08:07:06.009Z,27.13
2023-06-27T08:10:33.811Z,27.22
2023-06-27T08:13:02.579Z,27.27
2023-06-27T08:16:14.193Z,27.32
2023-06-27T08:19:41.972Z,27.39
2023-06-27T08:22:17.311Z,27.44
2023-06-27T08:24:47.083Z,27.49
2023-06-27T08:27:43.547Z,27.61
2023-06-27T08:30:19.987Z,27.63
2023-06-27T08:33:36.153Z,27.79
2023-06-27T08:36:59.161Z,27.90
2023-06-27T08:40:27.007Z,28.02
2023-06-27T08:43:36.618Z,28.09
2023-06-27T08:47:06.236Z,28.18
2023-06-27T08:50:16.124Z,28.28
2023-06-27T08:53:44.316Z,28.34
2023-06-27T08:56:52.653Z,28.37
2023-06-27T09:00:20.514Z,28.41
2023-06-27T09:03:30.421Z,28.46
2023-06-27T09:06:58.113Z,28.57
2023-06-27T09:10:26.556Z,28.77
2023-06-27T09:13:50.166Z,28.99
2023-06-27T09:16:58.860Z,29.17
2023-06-27T09:20:26.579Z,29.34
2023-06-27T09:23:16.335Z,29.46
2023-06-27T09:26:43.926Z,29.73
2023-06-27T09:29:51.530Z,29.94
2023-06-27T09:32:20.361Z,30.08
2023-06-27T09:34:48.188Z,30.25
2023-06-27T09:40:07.699Z,30.47
2023-06-27T09:43:16.199Z,30.68
2023-06-27T09:46:43.673Z,30.86
2023-06-27T09:50:11.304Z,30.92
2023-06-27T09:53:20.003Z,31.04
2023-06-27T09:56:11.843Z,31.33
2023-06-27T09:58:40.150Z,31.43
2023-06-27T10:01:30.321Z,31.43
2023-06-27T10:04:02.833Z,31.45
2023-06-27T10:06:31.804Z,31.58
2023-06-27T10:08:59.550Z,31.63
2023-06-27T10:11:27.285Z,31.66
2023-06-27T10:14:00.148Z,31.80
2023-06-27T10:16:28.794Z,31.94
2023-06-27T10:19:37.599Z,32.19
2023-06-27T10:22:46.373Z,32.28
2023-06-27T10:26:13.834Z,32.25
2023-06-27T10:29:22.434Z,32.27
2023-06-27T10:32:50.350Z,32.39
2023-06-27T10:35:21.511Z,32.57
2023-06-27T10:38:49.146Z,32.85
2023-06-27T10:41:38.797Z,33.00
2023-06-27T10:44:30.890Z,33.14
2023-06-27T10:47:38.611Z,33.30
2023-06-27T10:50:17.098Z,33.42
2023-06-27T10:53:44.716Z,33.57
2023-06-27T10:57:12.389Z,33.64
2023-06-27T11:00:40.043Z,33.76
2023-06-27T11:03:52.515Z,33.83
2023-06-27T11:07:19.856Z,33.90
2023-06-27T11:10:28.660Z,33.99
2023-06-27T11:13:56.376Z,33.72
2023-06-27T11:17:05.026Z,33.68
2023-06-27T11:20:32.835Z,33.78
2023-06-27T11:23:21.800Z,33.76
2023-06-27T11:26:29.527Z,33.58
2023-06-27T11:29:37.280Z,33.66
2023-06-27T11:33:05.041Z,33.79
2023-06-27T11:36:09.578Z,33.43
2023-06-27T11:39:37.371Z,33.34
2023-06-27T11:43:04.951Z,33.32
2023-06-27T11:46:32.545Z,33.10
2023-06-27T11:49:55.955Z,32.80
2023-06-27T11:53:23.445Z,32.13
2023-06-27T11:56:51.141Z,31.19
2023-06-27T11:59:59.588Z,30.85
2023-06-27T12:03:27.131Z,30.42
2023-06-27T12:06:54.777Z,30.11
2023-06-27T12:10:06.353Z,29.95
2023-06-27T12:13:33.899Z,29.69
2023-06-27T12:17:01.607Z,29.47
2023-06-27T12:20:29.158Z,29.38
2023-06-27T12:23:38.029Z,29.55
2023-06-27T12:27:05.767Z,29.63
2023-06-27T12:30:34.084Z,29.49
2023-06-27T12:33:43.531Z,29.38
2023-06-27T12:37:11.504Z,29.10
2023-06-27T12:40:39.383Z,28.96
2023-06-27T12:43:47.835Z,28.79
2023-06-27T12:46:41.464Z,28.67
2023-06-27T12:49:50.219Z,28.40
2023-06-27T12:52:40.848Z,28.10
2023-06-27T12:55:49.583Z,27.85
2023-06-27T12:59:17.128Z,27.56
2023-06-27T13:02:44.979Z,27.07
2023-06-27T13:05:53.373Z,26.86
2023-06-27T13:09:21.115Z,26.74
2023-06-27T13:12:30.921Z,26.66
2023-06-27T13:15:42.676Z,26.33
2023-06-27T13:19:07.353Z,25.98
2023-06-27T13:22:34.921Z,25.81
2023-06-27T13:26:02.457Z,25.55
2023-06-27T13:29:30.258Z,25.18
2023-06-27T13:32:58.061Z,24.92
2023-06-27T13:36:25.591Z,24.72
2023-06-27T13:39:53.625Z,24.66
2023-06-27T13:43:21.242Z,24.61
2023-06-27T13:46:38.531Z,24.62
2023-06-27T13:50:06.526Z,24.67
2023-06-27T13:53:34.082Z,24.79
2023-06-27T13:57:01.871Z,24.92
2023-06-27T14:00:10.036Z,24.98
2023-06-27T14:03:37.693Z,24.97
2023-06-27T14:06:49.313Z,24.89
2023-06-27T14:09:58.874Z,24.85
2023-06-27T14:13:26.592Z,24.87
2023-06-27T14:16:34.854Z,24.93
2023-06-27T14:20:02.560Z,25.01
2023-06-27T14:23:30.371Z,25.09
2023-06-27T14:26:38.897Z,25.19
2023-06-27T14:29:48.462Z,25.47
2023-06-27T14:32:56.378Z,25.93
2023-06-27T14:36:07.635Z,26.17
2023-06-27T14:39:32.866Z,26.22
2023-06-27T14:43:00.551Z,26.22
2023-06-27T14:46:28.554Z,26.28
2023-06-27T14:49:38.434Z,26.34
2023-06-27T14:53:05.903Z,26.40
2023-06-27T14:56:33.528Z,26.56
2023-06-27T15:00:01.465Z,26.87
2023-06-27T15:03:11.299Z,27.52
2023-06-27T15:06:17.288Z,28.55
2023-06-27T15:09:06.847Z,29.67
2023-06-27T15:12:14.517Z,30.53
2023-06-27T15:14:53.251Z,31.17
2023-06-27T15:17:51.155Z,31.89
2023-06-27T15:20:46.983Z,32.58
2023-06-27T15:24:14.815Z,33.40
2023-06-27T15:27:31.720Z,33.77
2023-06-27T15:30:39.438Z,33.66
2023-06-27T15:34:06.926Z,32.73
2023-06-27T15:37:15.588Z,31.75
2023-06-27T15:40:23.619Z,31.15
2023-06-27T15:43:51.441Z,30.46
2023-06-27T15:47:19.023Z,30.11
2023-06-27T15:50:27.212Z,29.94
2023-06-27T15:53:55.075Z,29.96
2023-06-27T15:57:22.876Z,29.96
2023-06-27T16:00:31.304Z,29.59
2023-06-27T16:03:38.922Z,29.12
2023-06-27T16:06:47.415Z,28.63
2023-06-27T16:10:14.980Z,28.48
2023-06-27T16:13:42.420Z,28.60
2023-06-27T16:17:10.155Z,29.09
2023-06-27T16:20:37.710Z,29.11
2023-06-27T16:24:05.666Z,28.93
2023-06-27T16:27:13.611Z,28.62
2023-06-27T16:30:41.693Z,28.02
2023-06-27T16:34:09.127Z,27.70
2023-06-27T16:37:20.519Z,27.49
2023-06-27T16:40:29.549Z,27.19
2023-06-27T16:43:57.093Z,26.82
2023-06-27T16:47:24.649Z,26.48
2023-06-27T16:50:52.313Z,26.09
2023-06-27T16:54:04.023Z,25.77
2023-06-27T16:57:13.873Z,25.38
2023-06-27T17:00:38.809Z,25.08
2023-06-27T17:04:06.662Z,24.77
2023-06-27T17:07:34.731Z,24.58
2023-06-27T17:11:02.347Z,24.39
2023-06-27T17:14:29.985Z,24.20
2023-06-27T17:17:57.570Z,23.96
2023-06-27T17:21:06.254Z,23.79
2023-06-27T17:23:56.669Z,23.60
2023-06-27T17:27:26.466Z,23.40
2023-06-27T17:30:35.105Z,23.24
2023-06-27T17:34:02.775Z,23.10
2023-06-27T17:36:51.920Z,23.00
2023-06-27T17:40:20.065Z,22.80
2023-06-27T17:43:29.768Z,22.69
2023-06-27T17:46:57.282Z,22.59
2023-06-27T17:50:07.401Z,22.53
2023-06-27T17:53:35.930Z,22.44
2023-06-27T17:56:47.108Z,22.38
2023-06-27T18:00:14.094Z,22.34
2023-06-27T18:03:41.734Z,22.30
2023-06-27T18:07:00.628Z,22.28
2023-06-27T18:10:28.495Z,22.22
2023-06-27T18:13:19.647Z,22.17
2023-06-27T18:16:47.215Z,22.10
2023-06-27T18:20:14.925Z,22.04
2023-06-27T18:23:29.987Z,22.01
2023-06-27T18:26:19.978Z,21.95
2023-06-27T18:29:47.583Z,21.90
2023-06-27T18:32:59.383Z,21.88
2023-06-27T18:36:07.992Z,21.79
2023-06-27T18:39:23.466Z,21.65
2023-06-27T18:42:32.397Z,21.55
2023-06-27T18:45:40.095Z,21.48
2023-06-27T18:49:07.660Z,21.42
2023-06-27T18:52:35.347Z,21.25
2023-06-27T18:56:02.898Z,21.07
2023-06-27T18:59:26.026Z,20.84
2023-06-27T19:02:53.545Z,20.58
2023-06-27T19:06:21.229Z,20.47
2023-06-27T19:09:48.935Z,20.39
2023-06-27T19:12:57.630Z,20.26
2023-06-27T19:16:06.120Z,20.08
2023-06-27T19:19:33.652Z,19.86
2023-06-27T19:23:01.454Z,19.67
2023-06-27T19:26:29.712Z,19.45
2023-06-27T19:29:57.848Z,19.39
2023-06-27T19:33:07.416Z,19.35
2023-06-27T19:36:16.312Z,19.33
2023-06-27T19:39:46.347Z,19.35
2023-06-27T19:42:52.689Z,19.36
2023-06-27T19:46:20.449Z,19.34
2023-06-27T19:49:28.702Z,19.29
2023-06-27T19:52:39.366Z,19.25
2023-06-27T19:56:06.905Z,19.18
2023-06-27T19:59:14.598Z,19.15
2023-06-27T20:02:24.181Z,19.15
2023-06-27T20:05:51.672Z,19.16
2023-06-27T20:09:00.437Z,19.19
2023-06-27T20:12:09.154Z,19.18
2023-06-27T20:15:25.071Z,19.21
2023-06-27T20:18:37.194Z,19.22
2023-06-27T20:21:40.929Z,19.19
2023-06-27T20:24:49.711Z,19.14
2023-06-27T20:28:14.496Z,19.07
2023-06-27T20:31:42.344Z,19.00
2023-06-27T20:35:12.629Z,18.92
2023-06-27T20:38:25.434Z,18.82
2023-06-27T20:41:53.091Z,18.73
2023-06-27T20:45:20.749Z,18.60
2023-06-27T20:48:29.892Z,18.47
2023-06-27T20:51:57.357Z,18.34
2023-06-27T20:55:25.016Z,18.22
2023-06-27T20:58:52.716Z,18.07
2023-06-27T21:02:00.320Z,17.84
2023-06-27T21:05:27.944Z,17.60
2023-06-27T21:07:57.367Z,17.47
2023-06-27T21:11:24.978Z,17.35
2023-06-27T21:14:52.786Z,17.22
2023-06-27T21:18:01.477Z,17.18
2023-06-27T21:21:29.081Z,17.08
2023-06-27T21:24:56.731Z,17.01
2023-06-27T21:28:05.118Z,16.98
2023-06-27T21:31:14.922Z,16.97
2023-06-27T21:34:42.620Z,16.99
2023-06-27T21:37:39.330Z,17.02
2023-06-27T21:41:06.857Z,17.03
2023-06-27T21:44:30.936Z,17.08
2023-06-27T21:48:01.573Z,17.11
2023-06-27T21:51:26.368Z,17.16
2023-06-27T21:54:54.250Z,17.22
2023-06-27T21:58:06.908Z,17.22
2023-06-27T22:01:34.505Z,17.15
2023-06-27T22:04:36.177Z,17.09
2023-06-27T22:07:47.161Z,17.06
2023-06-27T22:10:36.179Z,17.02
2023-06-27T22:14:04.162Z,16.96
2023-06-27T22:17:31.656Z,16.91
2023-06-27T22:20:59.129Z,16.86
2023-06-27T22:24:26.842Z,16.78
2023-06-27T22:27:40.092Z,16.72
2023-06-27T22:31:07.781Z,16.67
2023-06-27T22:34:01.194Z,16.67
2023-06-27T22:37:12.696Z,16.67
2023-06-27T22:40:40.615Z,16.72
2023-06-27T22:43:48.527Z,16.81
2023-06-27T22:46:58.482Z,16.83
2023-06-27T22:50:07.668Z,16.80
2023-06-27T22:53:35.584Z,16.60
2023-06-27T22:56:06.868Z,16.50
2023-06-27T22:59:15.646Z,16.39
2023-06-27T23:02:43.156Z,16.30
2023-06-27T23:06:10.752Z,16.28
2023-06-27T23:09:38.298Z,16.24
2023-06-27T23:13:05.893Z,16.23
2023-06-27T23:16:33.495Z,16.23
2023-06-27T23:20:01.219Z,16.25
2023-06-27T23:23:09.734Z,16.25
2023-06-27T23:26:37.450Z,16.25
2023-06-27T23:30:06.584Z,16.26
2023-06-27T23:33:34.153Z,16.27
2023-06-27T23:37:01.746Z,16.26
2023-06-27T23:40:29.241Z,16.27
2023-06-27T23:43:37.892Z,16.28
2023-06-27T23:47:05.405Z,16.28
2023-06-27T23:50:33.006Z,16.30
2023-06-27T23:53:41.523Z,16.30
2023-06-27T23:56:51.250Z,16.26
